Time;durP1;ratioP1;P1;durP2;ratioP2;P2;SDS_P1;SDS_P2;PMS_P1;PMS_P2;Temp;Humidity;BMP_temperature;BMP_pressure;BME280_temperature;BME280_humidity;BME280_pressure;Samples;Min_cycle;Max_cycle;Signal;HPM_P1;HPM_P2
2022/03/15 00:00:46;;;;;;;15.52;6.53;;;11.60;92.00;;;;;;5104323;28;20447;-70
2022/03/15 00:03:13;;;;;;;15.73;6.63;;;11.60;92.00;;;;;;5108406;28;20935;-71
2022/03/15 00:05:38;;;;;;;20.90;6.95;;;11.50;92.00;;;;;;5108278;28;20481;-71
2022/03/15 00:08:05;;;;;;;15.00;7.00;;;11.50;92.10;;;;;;5107108;28;20896;-71
2022/03/15 00:10:31;;;;;;;16.67;7.03;;;11.50;92.20;;;;;;5104507;27;20475;-68
2022/03/15 00:12:57;;;;;;;17.13;7.70;;;11.40;92.10;;;;;;5109674;28;20511;-69
2022/03/15 00:15:24;;;;;;;18.08;7.18;;;11.50;92.40;;;;;;5107424;28;20411;-67
2022/03/15 00:17:50;;;;;;;18.00;7.57;;;11.40;92.50;;;;;;5123186;27;21025;-67
2022/03/15 00:20:23;;;;;;;19.02;6.80;;;11.30;92.50;;;;;;5106663;28;20435;-71
2022/03/15 00:22:50;;;;;;;18.55;7.47;;;11.30;92.60;;;;;;5108028;28;20491;-71
2022/03/15 00:25:17;;;;;;;20.38;7.20;;;11.30;92.80;;;;;;5106798;28;20802;-71
2022/03/15 00:27:44;;;;;;;16.27;6.90;;;11.30;92.80;;;;;;5109279;28;20412;-70
2022/03/15 00:30:10;;;;;;;16.48;7.10;;;11.30;92.70;;;;;;5105156;28;20396;-69
2022/03/15 00:32:36;;;;;;;15.75;7.10;;;11.30;92.90;;;;;;5104630;28;20434;-68
2022/03/15 00:35:07;;;;;;;14.45;6.70;;;11.40;92.70;;;;;;5105611;28;20472;-67
2022/03/15 00:37:33;;;;;;;18.30;6.70;;;11.40;92.70;;;;;;5108371;28;20423;-67
2022/03/15 00:39:59;;;;;;;16.83;7.05;;;11.40;92.80;;;;;;5087145;28;20400;-69
2022/03/15 00:42:25;;;;;;;18.83;8.20;;;11.40;92.60;;;;;;5104988;28;20412;-70
2022/03/15 00:44:51;;;;;;;21.10;8.50;;;11.50;92.50;;;;;;5104590;28;20440;-71
2022/03/15 00:47:16;;;;;;;17.98;8.23;;;11.40;92.60;;;;;;5108224;28;20448;-70
2022/03/15 00:49:45;;;;;;;17.50;8.20;;;11.40;92.80;;;;;;5106746;28;20447;-69
2022/03/15 00:52:10;;;;;;;19.77;8.30;;;11.30;92.80;;;;;;5107044;28;20833;-70
2022/03/15 00:54:36;;;;;;;19.60;8.43;;;11.30;93.00;;;;;;5105475;28;20452;-70
2022/03/15 00:57:02;;;;;;;19.70;8.38;;;11.30;93.10;;;;;;5102787;28;20445;-69
2022/03/15 00:59:28;;;;;;;17.73;8.43;;;11.20;93.10;;;;;;5106192;28;20420;-69
2022/03/15 01:01:56;;;;;;;15.90;7.50;;;11.30;93.10;;;;;;5105020;28;20419;-69
2022/03/15 01:04:22;;;;;;;19.98;8.25;;;11.20;93.00;;;;;;5104041;28;20415;-68
2022/03/15 01:06:47;;;;;;;17.80;8.10;;;11.20;93.10;;;;;;5104580;28;20418;-67
2022/03/15 01:09:13;;;;;;;17.88;7.70;;;11.20;93.30;;;;;;5089876;28;20423;-68
2022/03/15 01:11:39;;;;;;;18.93;8.10;;;11.20;93.50;;;;;;5105339;28;20488;-67
2022/03/15 01:14:05;;;;;;;17.85;8.07;;;11.20;93.40;;;;;;5106545;28;20477;-69
2022/03/15 01:16:31;;;;;;;19.07;8.53;;;11.20;93.50;;;;;;5107618;28;20419;-70
2022/03/15 01:18:57;;;;;;;17.15;8.38;;;11.20;93.50;;;;;;5106026;28;20923;-67
2022/03/15 01:21:25;;;;;;;18.08;8.32;;;11.20;93.60;;;;;;5106719;28;20415;-68
2022/03/15 01:23:51;;;;;;;19.65;8.88;;;11.20;93.50;;;;;;5103813;28;20400;-69
2022/03/15 01:26:18;;;;;;;19.23;8.13;;;11.20;93.70;;;;;;5104605;27;20392;-69
2022/03/15 01:28:43;;;;;;;17.23;8.23;;;11.20;93.80;;;;;;5105232;28;20411;-70
2022/03/15 01:31:10;;;;;;;18.47;8.00;;;11.20;93.90;;;;;;5087148;28;20935;-69
2022/03/15 01:33:35;;;;;;;15.97;8.00;;;11.20;94.10;;;;;;5104585;28;20441;-69
2022/03/15 01:36:02;;;;;;;18.02;7.78;;;11.20;94.10;;;;;;5107546;28;20400;-70
2022/03/15 01:38:28;;;;;;;16.05;7.80;;;11.20;94.10;;;;;;5105782;28;20414;-71
2022/03/15 01:40:54;;;;;;;18.43;8.23;;;11.20;94.10;;;;;;5105284;28;21986;-68
2022/03/15 01:43:20;;;;;;;17.42;7.65;;;11.10;94.10;;;;;;5103560;28;20405;-69
2022/03/15 01:45:47;;;;;;;20.33;7.20;;;11.10;94.10;;;;;;5106071;28;20780;-69
2022/03/15 01:48:16;;;;;;;18.67;7.83;;;11.10;94.10;;;;;;5104792;28;20407;-68
2022/03/15 01:50:43;;;;;;;18.53;7.13;;;11.10;94.10;;;;;;5105499;28;20467;-68
2022/03/15 01:53:09;;;;;;;17.52;6.75;;;11.10;94.10;;;;;;5104273;28;20436;-66
2022/03/15 01:55:39;;;;;;;15.85;7.00;;;11.10;94.10;;;;;;5106941;28;20396;-66
2022/03/15 01:58:05;;;;;;;17.08;7.20;;;11.00;94.20;;;;;;5104581;28;20424;-67
2022/03/15 02:00:31;;;;;;;17.20;7.45;;;11.00;94.40;;;;;;5104607;28;20482;-71
2022/03/15 02:02:58;;;;;;;18.52;7.60;;;10.90;94.30;;;;;;5092294;28;20508;-70
2022/03/15 02:05:24;;;;;;;18.02;7.25;;;10.90;94.30;;;;;;5106547;28;20419;-70
2022/03/15 02:07:49;;;;;;;18.67;7.50;;;10.90;94.30;;;;;;5103379;28;20410;-72
2022/03/15 02:10:15;;;;;;;15.63;7.03;;;10.80;94.30;;;;;;5107321;28;20412;-69
2022/03/15 02:12:41;;;;;;;16.63;7.05;;;10.80;94.30;;;;;;5105723;28;20764;-69
2022/03/15 02:15:07;;;;;;;17.77;7.00;;;10.70;94.30;;;;;;5104084;28;20418;-66
2022/03/15 02:17:33;;;;;;;17.60;7.20;;;10.70;94.40;;;;;;5105197;28;20436;-68
2022/03/15 02:20:04;;;;;;;19.55;7.22;;;10.70;94.40;;;;;;5103938;28;20943;-66
2022/03/15 02:22:30;;;;;;;16.02;7.30;;;10.70;94.40;;;;;;5103749;28;20441;-69
2022/03/15 02:24:56;;;;;;;16.38;7.40;;;10.70;94.40;;;;;;5105655;28;20407;-69
2022/03/15 02:27:24;;;;;;;17.90;7.53;;;10.60;94.40;;;;;;5105625;28;20400;-68
2022/03/15 02:29:50;;;;;;;16.17;7.07;;;10.60;94.80;;;;;;5105124;28;20410;-68
2022/03/15 02:32:16;;;;;;;15.80;7.10;;;10.60;94.40;;;;;;5104565;28;20414;-66
2022/03/15 02:34:41;;;;;;;16.60;7.55;;;10.60;94.40;;;;;;5106239;28;20412;-67
2022/03/15 02:37:07;;;;;;;17.47;7.30;;;10.60;94.40;;;;;;5101583;28;20507;-67
2022/03/15 02:39:33;;;;;;;17.65;7.43;;;10.50;94.40;;;;;;5104834;28;20404;-68
2022/03/15 02:41:59;;;;;;;15.55;7.45;;;10.50;94.40;;;;;;5104084;28;20471;-68
2022/03/15 02:44:25;;;;;;;16.67;7.00;;;10.50;94.50;;;;;;5104989;28;20418;-67
2022/03/15 02:46:51;;;;;;;17.05;7.30;;;10.50;94.50;;;;;;5104827;28;20484;-70
2022/03/15 02:49:17;;;;;;;17.60;7.40;;;10.50;94.60;;;;;;5105501;28;20896;-71
2022/03/15 02:51:43;;;;;;;19.40;7.47;;;10.40;94.40;;;;;;5102351;28;20461;-69
2022/03/15 02:54:11;;;;;;;17.20;7.30;;;10.40;94.60;;;;;;5105897;28;20416;-71
2022/03/15 02:56:42;;;;;;;17.10;7.32;;;10.40;94.60;;;;;;5105293;28;20407;-70
2022/03/15 02:59:08;;;;;;;17.10;7.55;;;10.40;94.50;;;;;;5105521;28;20416;-71
2022/03/15 03:01:34;;;;;;;16.75;8.02;;;10.40;94.50;;;;;;5102623;28;20450;-70
2022/03/15 03:04:00;;;;;;;15.83;7.60;;;10.30;94.50;;;;;;5101973;28;20884;-70
2022/03/15 03:06:26;;;;;;;14.93;7.60;;;10.30;94.50;;;;;;5104896;28;20819;-73
2022/03/15 03:08:52;;;;;;;15.05;7.43;;;10.30;94.50;;;;;;5101975;28;20463;-69
2022/03/15 03:11:18;;;;;;;19.73;7.43;;;10.30;94.60;;;;;;5101902;28;20512;-68
2022/03/15 03:13:44;;;;;;;17.00;7.65;;;10.30;94.70;;;;;;5103243;28;20411;-67
2022/03/15 03:16:13;;;;;;;15.88;7.40;;;10.30;94.90;;;;;;5103122;28;20412;-67
2022/03/15 03:18:39;;;;;;;17.27;7.55;;;10.30;95.00;;;;;;5105333;28;20423;-67
2022/03/15 03:21:06;;;;;;;17.77;7.35;;;10.30;94.90;;;;;;5104266;28;20541;-68
2022/03/15 03:23:35;;;;;;;15.07;8.00;;;10.30;94.90;;;;;;5108910;28;20470;-67
2022/03/15 03:26:01;;;;;;;13.95;7.20;;;10.20;94.80;;;;;;5106639;28;20424;-67
2022/03/15 03:28:33;;;;;;;17.52;7.68;;;10.20;95.00;;;;;;5107848;28;20413;-68
2022/03/15 03:31:00;;;;;;;17.40;7.60;;;10.20;95.00;;;;;;5107598;28;20396;-67
2022/03/15 03:33:26;;;;;;;17.80;7.95;;;10.20;95.10;;;;;;5108675;28;20407;-69
2022/03/15 03:35:52;;;;;;;17.92;8.20;;;10.20;95.00;;;;;;5109669;27;20760;-67
2022/03/15 03:38:18;;;;;;;15.73;7.93;;;10.20;95.00;;;;;;5108737;28;20426;-67
2022/03/15 03:40:44;;;;;;;16.25;8.10;;;10.20;95.10;;;;;;5106535;28;20995;-67
2022/03/15 03:43:10;;;;;;;17.60;8.50;;;10.20;95.10;;;;;;5108918;28;20555;-68
2022/03/15 03:45:36;;;;;;;17.00;8.15;;;10.10;95.10;;;;;;5105716;28;20934;-67
2022/03/15 03:48:02;;;;;;;19.25;8.82;;;10.10;95.40;;;;;;5108293;28;20429;-68
2022/03/15 03:50:28;;;;;;;19.87;9.30;;;10.20;95.10;;;;;;5108446;28;20756;-69
2022/03/15 03:52:54;;;;;;;17.30;8.77;;;10.20;95.10;;;;;;5106398;28;20408;-69
2022/03/15 03:55:20;;;;;;;17.90;9.20;;;10.10;95.20;;;;;;5108287;28;20444;-68
2022/03/15 03:57:45;;;;;;;18.05;9.10;;;10.10;95.20;;;;;;5110613;28;20403;-68
2022/03/15 04:00:11;;;;;;;17.30;8.80;;;10.10;95.20;;;;;;5105423;28;20416;-68
2022/03/15 04:02:40;;;;;;;17.88;9.45;;;10.10;95.20;;;;;;5108984;28;20806;-67
2022/03/15 04:05:06;;;;;;;18.77;10.00;;;10.10;95.20;;;;;;5108333;28;20412;-68
2022/03/15 04:07:34;;;;;;;25.63;11.80;;;10.00;95.20;;;;;;5108828;28;20400;-68
2022/03/15 04:10:00;;;;;;;26.65;11.27;;;10.10;95.40;;;;;;5105132;28;20439;-69
2022/03/15 04:12:26;;;;;;;24.70;12.93;;;10.10;95.40;;;;;;5107415;28;20451;-69
2022/03/15 04:14:57;;;;;;;24.23;12.57;;;10.10;95.50;;;;;;5105145;28;20396;-68
2022/03/15 04:17:22;;;;;;;24.42;12.90;;;10.10;95.40;;;;;;5108183;28;20414;-70
2022/03/15 04:19:48;;;;;;;27.23;13.95;;;10.00;95.70;;;;;;5109057;28;20486;-69
2022/03/15 04:22:13;;;;;;;24.03;13.23;;;10.10;95.50;;;;;;5108037;28;20918;-70
2022/03/15 04:24:39;;;;;;;28.00;13.77;;;10.10;95.50;;;;;;5104931;28;20431;-70
2022/03/15 04:27:05;;;;;;;26.55;13.02;;;10.10;95.50;;;;;;5106701;28;20409;-70
2022/03/15 04:29:31;;;;;;;23.20;12.68;;;10.10;95.50;;;;;;5108818;28;20491;-68
2022/03/15 04:31:57;;;;;;;24.45;13.23;;;10.10;95.40;;;;;;5106892;28;20499;-71
2022/03/15 04:34:25;;;;;;;24.97;12.40;;;10.10;95.40;;;;;;5106583;28;20491;-69
2022/03/15 04:36:51;;;;;;;30.38;14.35;;;10.10;95.40;;;;;;5105425;28;20487;-66
2022/03/15 04:39:16;;;;;;;24.98;13.85;;;10.10;95.40;;;;;;5104932;28;20412;-69
2022/03/15 04:41:43;;;;;;;24.23;14.50;;;10.10;95.40;;;;;;5107094;28;20419;-70
2022/03/15 04:44:09;;;;;;;27.25;14.57;;;10.10;95.40;;;;;;5104866;28;20420;-67
2022/03/15 04:46:35;;;;;;;28.77;15.60;;;10.20;95.60;;;;;;5106609;28;20424;-67
2022/03/15 04:49:00;;;;;;;26.03;15.23;;;10.10;95.50;;;;;;5107735;28;20973;-69
2022/03/15 04:51:26;;;;;;;27.75;15.45;;;10.20;95.40;;;;;;5107527;28;20468;-72
2022/03/15 04:53:53;;;;;;;25.43;14.90;;;10.20;95.50;;;;;;5105704;28;20432;-69
2022/03/15 04:56:19;;;;;;;28.70;15.38;;;10.20;95.30;;;;;;5106649;28;20422;-69
2022/03/15 04:58:45;;;;;;;31.77;16.83;;;10.20;95.50;;;;;;5107692;28;20411;-69
2022/03/15 05:01:11;;;;;;;24.63;14.52;;;10.20;95.50;;;;;;5104007;28;21133;-68
2022/03/15 05:03:37;;;;;;;28.52;15.80;;;10.20;95.50;;;;;;5107631;28;20439;-69
2022/03/15 05:06:03;;;;;;;32.28;16.77;;;10.20;95.50;;;;;;5102431;28;20414;-69
2022/03/15 05:08:29;;;;;;;30.38;16.35;;;10.20;95.60;;;;;;5109307;28;20408;-70
2022/03/15 05:11:07;;;;;;;27.50;16.52;;;10.20;95.50;;;;;;5105905;28;20420;-67
2022/03/15 05:13:45;;;;;;;29.30;16.45;;;10.30;95.60;;;;;;5104165;28;20479;-70
2022/03/15 05:16:18;;;;;;;29.95;16.88;;;10.20;95.50;;;;;;5105497;28;20420;-68
2022/03/15 05:18:49;;;;;;;34.63;16.85;;;10.20;95.60;;;;;;5106875;28;20408;-70
2022/03/15 05:21:16;;;;;;;32.78;18.13;;;10.30;95.60;;;;;;5104940;28;20465;-70
2022/03/15 05:23:46;;;;;;;33.67;18.40;;;10.30;95.70;;;;;;5105130;28;20412;-69
2022/03/15 05:26:14;;;;;;;29.02;16.90;;;10.30;95.70;;;;;;5102530;28;20416;-69
2022/03/15 05:28:40;;;;;;;31.33;17.83;;;10.20;95.70;;;;;;5104776;28;20419;-72
2022/03/15 05:31:08;;;;;;;32.72;19.05;;;10.20;95.80;;;;;;5103612;27;20915;-70
2022/03/15 05:33:34;;;;;;;31.90;18.98;;;10.20;95.80;;;;;;5104964;28;20406;-70
2022/03/15 05:36:00;;;;;;;35.53;20.10;;;10.20;95.80;;;;;;5104372;28;20415;-70
2022/03/15 05:38:26;;;;;;;34.27;19.63;;;10.30;95.90;;;;;;5104402;28;20502;-69
2022/03/15 05:40:52;;;;;;;36.97;19.15;;;10.30;96.00;;;;;;5107003;28;20400;-69
2022/03/15 05:43:19;;;;;;;35.25;19.52;;;10.30;95.90;;;;;;5105168;28;20418;-70
2022/03/15 05:45:45;;;;;;;34.15;19.65;;;10.30;96.00;;;;;;5102424;28;20900;-71
2022/03/15 05:48:11;;;;;;;35.22;19.98;;;10.20;95.90;;;;;;5104523;28;20404;-71
2022/03/15 05:50:37;;;;;;;37.25;20.25;;;10.20;96.00;;;;;;5107394;28;20677;-72
2022/03/15 05:53:06;;;;;;;36.42;19.75;;;10.20;96.10;;;;;;5102089;28;20883;-71
2022/03/15 05:55:32;;;;;;;35.92;20.20;;;10.20;96.10;;;;;;5106206;28;20411;-69
2022/03/15 05:57:59;;;;;;;33.63;20.50;;;10.20;96.20;;;;;;5103645;28;20400;-71
2022/03/15 06:00:26;;;;;;;35.78;20.35;;;10.20;96.20;;;;;;5104355;27;20422;-70
2022/03/15 06:02:52;;;;;;;42.37;20.83;;;10.20;96.60;;;;;;5103309;28;20415;-71
2022/03/15 06:05:18;;;;;;;36.25;19.83;;;10.20;96.30;;;;;;5104189;28;20411;-70
2022/03/15 06:07:51;;;;;;;37.45;20.30;;;10.20;96.50;;;;;;5104973;28;20975;-69
2022/03/15 06:10:22;;;;;;;34.08;20.38;;;10.20;96.50;;;;;;5105258;28;20400;-70
2022/03/15 06:12:50;;;;;;;41.72;22.55;;;10.20;96.60;;;;;;5105044;28;20404;-69
2022/03/15 06:15:16;;;;;;;41.33;21.65;;;10.20;96.60;;;;;;5103297;28;20410;-72
2022/03/15 06:17:56;;;;;;;39.92;22.02;;;10.20;96.70;;;;;;5103604;28;20809;-69
2022/03/15 06:20:23;;;;;;;37.78;22.70;;;10.20;96.60;;;;;;5105378;28;20949;-69
2022/03/15 06:22:51;;;;;;;37.97;21.40;;;10.30;96.70;;;;;;5103788;28;21087;-69
2022/03/15 06:25:21;;;;;;;38.20;21.10;;;10.30;96.60;;;;;;5104795;28;20772;-69
2022/03/15 06:27:48;;;;;;;38.40;20.83;;;10.30;96.70;;;;;;5099361;28;20888;-69
2022/03/15 06:30:18;;;;;;;37.80;22.17;;;10.30;96.70;;;;;;5087808;28;20908;-69
2022/03/15 06:32:44;;;;;;;35.70;20.88;;;10.30;96.70;;;;;;5105836;28;20411;-69
2022/03/15 06:35:12;;;;;;;38.78;20.15;;;10.30;96.80;;;;;;5104517;28;20404;-69
2022/03/15 06:37:42;;;;;;;38.10;20.15;;;10.30;96.70;;;;;;5105478;28;20454;-69
2022/03/15 06:40:09;;;;;;;42.05;20.25;;;10.30;96.70;;;;;;5084424;28;20427;-68
2022/03/15 06:42:35;;;;;;;36.78;20.23;;;10.30;96.80;;;;;;5105215;28;20408;-71
2022/03/15 06:45:01;;;;;;;34.30;19.63;;;10.30;96.80;;;;;;5106368;28;20767;-69
2022/03/15 06:47:27;;;;;;;39.33;20.60;;;10.30;96.80;;;;;;5104812;28;20392;-68
2022/03/15 06:49:52;;;;;;;39.87;21.33;;;10.40;96.80;;;;;;5106069;28;20548;-69
2022/03/15 06:52:18;;;;;;;41.65;20.75;;;10.40;96.90;;;;;;5106469;28;20380;-72
2022/03/15 06:54:44;;;;;;;39.83;21.50;;;10.40;96.80;;;;;;5105331;28;20490;-71
2022/03/15 06:57:10;;;;;;;38.80;20.83;;;10.40;96.70;;;;;;5106000;28;20503;-70
2022/03/15 06:59:36;;;;;;;38.20;20.93;;;10.40;96.70;;;;;;5110042;28;20411;-69
2022/03/15 07:02:03;;;;;;;37.35;20.58;;;10.40;96.60;;;;;;5108260;28;20404;-70
2022/03/15 07:04:28;;;;;;;41.15;20.73;;;10.40;96.60;;;;;;5089900;28;20420;-70
2022/03/15 07:06:54;;;;;;;40.10;20.77;;;10.50;96.70;;;;;;5108757;28;20396;-70
2022/03/15 07:09:20;;;;;;;42.80;21.10;;;10.50;96.70;;;;;;5111167;28;20494;-70
2022/03/15 07:11:46;;;;;;;40.53;21.13;;;10.50;96.70;;;;;;5108909;28;20388;-69
2022/03/15 07:14:14;;;;;;;36.00;21.17;;;10.50;96.80;;;;;;5105756;28;20406;-71
2022/03/15 07:16:40;;;;;;;39.17;22.73;;;10.60;96.80;;;;;;5107935;28;20471;-71
2022/03/15 07:19:05;;;;;;;37.55;21.77;;;10.60;96.80;;;;;;5110498;28;20399;-70
2022/03/15 07:21:31;;;;;;;38.37;22.07;;;10.60;96.80;;;;;;5110603;28;20437;-69
2022/03/15 07:23:58;;;;;;;36.80;21.63;;;10.60;96.80;;;;;;5108504;28;20412;-68
2022/03/15 07:26:23;;;;;;;40.33;23.05;;;10.70;96.70;;;;;;5109227;27;20398;-69
2022/03/15 07:28:49;;;;;;;42.53;22.87;;;10.70;96.60;;;;;;5108792;28;20404;-69
2022/03/15 07:31:15;;;;;;;42.90;23.48;;;10.70;96.60;;;;;;5108185;28;20946;-68
2022/03/15 07:33:40;;;;;;;42.63;23.87;;;10.80;96.60;;;;;;5110092;28;20449;-68
2022/03/15 07:36:06;;;;;;;43.38;24.58;;;10.80;96.60;;;;;;5109742;28;20958;-70
2022/03/15 07:38:32;;;;;;;42.80;24.25;;;10.80;96.60;;;;;;5108080;28;20494;-69
2022/03/15 07:41:00;;;;;;;40.17;25.30;;;10.80;96.60;;;;;;5108435;28;20403;-71
2022/03/15 07:43:27;;;;;;;41.63;24.50;;;10.80;96.60;;;;;;5109078;28;20437;-70
2022/03/15 07:45:56;;;;;;;42.47;25.23;;;10.80;96.70;;;;;;5109173;27;20972;-70
2022/03/15 07:48:21;;;;;;;43.55;25.13;;;10.90;96.70;;;;;;5109767;28;20441;-70
2022/03/15 07:50:49;;;;;;;42.83;25.30;;;10.90;96.70;;;;;;5109907;28;20487;-69
2022/03/15 07:53:15;;;;;;;39.95;24.73;;;11.00;96.50;;;;;;5094601;28;20424;-69
2022/03/15 07:55:40;;;;;;;43.30;25.50;;;11.10;96.50;;;;;;5108254;28;20411;-69
2022/03/15 07:58:06;;;;;;;46.10;26.20;;;11.10;96.50;;;;;;5108869;28;20422;-71
2022/03/15 08:00:32;;;;;;;42.90;25.58;;;11.20;96.50;;;;;;5106475;28;20448;-68
2022/03/15 08:02:58;;;;;;;44.15;26.30;;;11.20;96.60;;;;;;5105402;28;20900;-69
2022/03/15 08:05:27;;;;;;;41.83;25.73;;;11.20;96.60;;;;;;5106431;28;20752;-69
2022/03/15 08:07:53;;;;;;;41.05;25.42;;;11.30;96.60;;;;;;5107947;28;20408;-68
2022/03/15 08:10:19;;;;;;;46.83;28.60;;;11.40;96.50;;;;;;5109770;28;20479;-70
2022/03/15 08:12:44;;;;;;;50.03;32.70;;;11.40;96.40;;;;;;5105687;28;20499;-69
2022/03/15 08:15:11;;;;;;;43.03;26.30;;;11.50;96.60;;;;;;5107957;28;20499;-67
2022/03/15 08:17:38;;;;;;;40.13;25.73;;;11.60;96.40;;;;;;5107165;28;20425;-67
2022/03/15 08:20:05;;;;;;;38.55;23.60;;;11.70;96.40;;;;;;5108126;28;20432;-68
2022/03/15 08:22:31;;;;;;;43.08;23.70;;;11.70;96.10;;;;;;5106373;28;20408;-69
2022/03/15 08:24:58;;;;;;;38.97;23.47;;;11.80;95.80;;;;;;5106005;28;20541;-68
2022/03/15 08:27:24;;;;;;;38.15;22.45;;;11.90;95.70;;;;;;5106050;28;20396;-69
2022/03/15 08:29:51;;;;;;;39.90;21.87;;;11.90;95.40;;;;;;5109273;28;20902;-68
2022/03/15 08:32:16;;;;;;;34.53;22.25;;;12.00;94.80;;;;;;5108263;28;20404;-70
2022/03/15 08:34:42;;;;;;;38.07;22.90;;;12.10;94.70;;;;;;5107001;28;20408;-68
2022/03/15 08:37:09;;;;;;;37.65;23.00;;;12.10;94.80;;;;;;5105449;28;20416;-68
2022/03/15 08:39:35;;;;;;;36.40;22.13;;;12.20;95.00;;;;;;5106257;28;20395;-68
2022/03/15 08:42:01;;;;;;;35.78;19.77;;;12.50;95.40;;;;;;5104958;27;20420;-68
2022/03/15 08:44:27;;;;;;;30.60;18.80;;;13.10;94.70;;;;;;5109054;28;20545;-68
2022/03/15 08:46:52;;;;;;;28.63;17.55;;;14.00;93.00;;;;;;5108687;27;20529;-69
2022/03/15 08:49:20;;;;;;;30.63;16.27;;;14.90;91.50;;;;;;5108320;28;20416;-67
2022/03/15 08:51:46;;;;;;;31.33;17.15;;;15.70;87.90;;;;;;5109588;28;20404;-68
2022/03/15 08:54:12;;;;;;;27.03;16.20;;;16.10;84.70;;;;;;5108368;28;20427;-68
2022/03/15 08:56:41;;;;;;;28.73;16.83;;;16.40;81.60;;;;;;5105716;28;20828;-69
2022/03/15 08:59:07;;;;;;;30.48;16.92;;;16.50;80.10;;;;;;5107920;28;20404;-69
2022/03/15 09:01:33;;;;;;;26.63;15.67;;;16.50;80.60;;;;;;5108849;28;20396;-68
2022/03/15 09:03:59;;;;;;;31.73;17.70;;;16.30;80.60;;;;;;5108490;28;20197;-70
2022/03/15 09:06:24;;;;;;;27.58;16.40;;;15.60;83.80;;;;;;5109849;28;20201;-70
2022/03/15 09:08:50;;;;;;;33.53;15.65;;;15.10;86.50;;;;;;5110423;28;20622;-71
2022/03/15 09:11:16;;;;;;;27.52;14.57;;;14.80;88.50;;;;;;5107657;28;20165;-67
2022/03/15 09:13:42;;;;;;;25.23;14.52;;;14.60;89.80;;;;;;5109538;27;20245;-68
2022/03/15 09:16:08;;;;;;;26.80;13.75;;;14.60;90.40;;;;;;5109221;28;20782;-67
2022/03/15 09:18:33;;;;;;;26.95;14.65;;;14.70;90.60;;;;;;5109241;28;20186;-68
2022/03/15 09:20:59;;;;;;;;;;;14.80;91.00;;;;;;5109538;28;20027;-67
2022/03/15 09:23:25;;;;;;;23.73;13.52;;;15.30;91.70;;;;;;5108696;28;21886;-68
2022/03/15 09:25:50;;;;;;;25.52;13.85;;;17.90;80.00;;;;;;5109018;27;20780;-67
2022/03/15 09:28:17;;;;;;;26.53;13.80;;;20.40;65.60;;;;;;5105845;28;20411;-64
2022/03/15 09:30:44;;;;;;;23.33;12.00;;;22.60;56.70;;;;;;5105489;28;20481;-67
2022/03/15 09:33:12;;;;;;;20.23;11.40;;;24.40;49.10;;;;;;5109235;28;20406;-65
2022/03/15 09:35:42;;;;;;;21.90;11.57;;;25.90;45.00;;;;;;5109108;28;20396;-65
2022/03/15 09:38:08;;;;;;;22.25;11.50;;;27.00;42.30;;;;;;5106521;28;20481;-67
2022/03/15 09:40:34;;;;;;;19.95;9.90;;;27.60;40.10;;;;;;5106782;28;20404;-69
2022/03/15 09:43:03;;;;;;;17.87;10.17;;;28.00;38.00;;;;;;5108747;28;20408;-68
2022/03/15 09:45:33;;;;;;;16.38;9.57;;;28.30;37.60;;;;;;5107171;28;20416;-69
2022/03/15 09:48:03;;;;;;;19.42;9.38;;;28.80;36.00;;;;;;5107543;28;20388;-68
2022/03/15 09:50:30;;;;;;;17.70;9.65;;;29.60;34.50;;;;;;5108848;28;20423;-67
2022/03/15 09:52:57;;;;;;;16.63;10.20;;;30.20;33.70;;;;;;5107620;28;20414;-69
2022/03/15 09:55:25;;;;;;;19.88;9.50;;;30.60;32.70;;;;;;5108318;28;20717;-70
2022/03/15 09:57:52;;;;;;;18.52;8.88;;;31.10;32.50;;;;;;5108468;28;20432;-68
2022/03/15 10:00:19;;;;;;;18.98;10.00;;;31.50;31.20;;;;;;5104400;28;20416;-67
2022/03/15 10:02:47;;;;;;;18.70;10.68;;;32.00;30.60;;;;;;5108698;28;20408;-68
2022/03/15 10:05:13;;;;;;;19.17;10.25;;;32.40;30.50;;;;;;5107213;28;20420;-69
2022/03/15 10:07:40;;;;;;;17.50;9.55;;;32.70;30.00;;;;;;5107872;28;20798;-67
2022/03/15 10:10:09;;;;;;;16.27;9.93;;;32.90;30.10;;;;;;5107216;28;20479;-68
2022/03/15 10:12:35;;;;;;;16.25;9.90;;;33.20;28.80;;;;;;5107255;28;20454;-67
2022/03/15 10:15:19;;;;;;;19.53;10.30;;;33.30;28.40;;;;;;5108479;28;20484;-67
2022/03/15 10:17:47;;;;;;;19.42;9.82;;;33.00;29.30;;;;;;5108038;28;20184;-70
2022/03/15 10:20:18;;;;;;;19.05;10.50;;;31.70;31.80;;;;;;5104935;28;20468;-71
2022/03/15 10:23:10;;;;;;;18.20;9.57;;;32.60;29.20;;;;;;5088550;28;20457;-69
2022/03/15 10:25:40;;;;;;;19.42;10.70;;;32.70;28.90;;;;;;5106356;28;20220;-68
2022/03/15 10:28:08;;;;;;;17.52;10.25;;;31.60;31.00;;;;;;5105114;28;20185;-68
2022/03/15 10:30:36;;;;;;;17.20;9.38;;;30.80;32.60;;;;;;5108847;28;20263;-65
2022/03/15 10:33:03;;;;;;;15.30;8.90;;;30.50;33.40;;;;;;5107697;28;20603;-68
2022/03/15 10:35:35;;;;;;;15.38;8.80;;;30.10;34.10;;;;;;5107090;28;20192;-69
2022/03/15 10:38:02;;;;;;;17.67;8.63;;;29.90;34.40;;;;;;5107073;28;20201;-70
2022/03/15 10:40:42;;;;;;;13.93;8.40;;;29.80;35.10;;;;;;5107187;28;20189;-71
2022/03/15 10:43:18;;;;;;;13.95;8.38;;;29.80;34.80;;;;;;5106561;28;20200;-70
2022/03/15 10:45:57;;;;;;;15.25;7.60;;;30.00;34.40;;;;;;5106533;28;20224;-69
2022/03/15 10:48:26;;;;;;;14.02;6.53;;;30.00;34.20;;;;;;5107900;28;20500;-69
2022/03/15 10:50:54;;;;;;;16.15;6.45;;;30.00;33.70;;;;;;5107022;28;20185;-68
2022/03/15 10:53:24;;;;;;;13.00;6.22;;;29.90;33.20;;;;;;5107708;28;20199;-68
2022/03/15 10:55:50;;;;;;;15.63;5.47;;;30.00;32.90;;;;;;5108036;28;20525;-71
2022/03/15 10:58:22;;;;;;;13.45;4.97;;;30.10;32.30;;;;;;5107423;28;20176;-70
2022/03/15 11:00:53;;;;;;;12.40;4.68;;;30.00;31.80;;;;;;5104896;28;20191;-68
2022/03/15 11:03:25;;;;;;;10.23;4.32;;;29.90;31.50;;;;;;5107687;28;20609;-69
2022/03/15 11:06:00;;;;;;;9.65;3.53;;;30.10;31.50;;;;;;5105495;28;20303;-70
2022/03/15 11:08:25;;;;;;;10.48;4.03;;;30.10;30.60;;;;;;5108875;28;20271;-71
2022/03/15 11:10:52;;;;;;;9.98;3.83;;;30.20;30.80;;;;;;5107101;28;20638;-68
2022/03/15 11:13:18;;;;;;;10.35;3.42;;;30.20;30.70;;;;;;5107726;28;20189;-70
2022/03/15 11:15:48;;;;;;;;;;;30.30;30.60;;;;;;5107417;28;20114;-71
2022/03/15 11:18:17;;;;;;;6.70;3.70;;;29.90;31.60;;;;;;5108096;28;20603;-70
2022/03/15 11:20:50;;;;;;;10.13;4.15;;;30.00;31.40;;;;;;5106440;28;20242;-70
2022/03/15 11:23:17;;;;;;;9.13;3.80;;;29.90;30.50;;;;;;5105710;28;20734;-73
2022/03/15 11:25:48;;;;;;;10.27;4.65;;;31.90;26.90;;;;;;5122282;28;20412;-69
2022/03/15 11:28:27;;;;;;;9.35;3.83;;;32.50;26.50;;;;;;5105902;28;20285;-71
2022/03/15 11:30:54;;;;;;;5.53;3.60;;;31.30;28.00;;;;;;5101030;28;20199;-69
2022/03/15 11:33:20;;;;;;;9.10;4.10;;;30.70;29.10;;;;;;5106215;28;20490;-70
2022/03/15 11:35:46;;;;;;;10.23;4.20;;;31.90;27.00;;;;;;5107276;28;20693;-70
2022/03/15 11:38:15;;;;;;;9.18;3.30;;;31.10;28.10;;;;;;5104827;28;20181;-71
2022/03/15 11:40:43;;;;;;;9.00;3.53;;;30.50;28.60;;;;;;5103994;28;20267;-69
2022/03/15 11:43:21;;;;;;;8.50;3.70;;;30.00;29.30;;;;;;5108613;28;20437;-68
2022/03/15 11:46:16;;;;;;;7.47;2.85;;;31.20;27.40;;;;;;5107176;28;20416;-71
2022/03/15 11:48:58;;;;;;;10.80;3.30;;;31.30;26.80;;;;;;5103900;28;20201;-71
2022/03/15 11:51:43;;;;;;;9.35;3.45;;;30.10;28.70;;;;;;5110249;28;20197;-70
2022/03/15 11:54:18;;;;;;;7.07;2.97;;;29.10;29.10;;;;;;5091566;28;20192;-69
2022/03/15 11:57:37;;;;;;;7.95;3.10;;;28.40;30.00;;;;;;5109900;28;20184;-68
2022/03/15 12:00:04;;;;;;;9.90;2.90;;;28.00;30.90;;;;;;5036506;28;20187;-70
2022/03/15 12:02:47;;;;;;;7.53;2.60;;;27.90;31.10;;;;;;5108404;28;20316;-69
2022/03/15 12:05:18;;;;;;;8.52;2.63;;;28.00;31.10;;;;;;5109908;28;20208;-68
2022/03/15 12:08:11;;;;;;;7.47;2.80;;;27.90;30.90;;;;;;5109753;28;20884;-67
2022/03/15 12:10:42;;;;;;;6.83;2.70;;;29.10;28.90;;;;;;5106530;28;20765;-68
2022/03/15 12:13:09;;;;;;;;;;;29.10;28.60;;;;;;5110728;28;20433;-71
2022/03/15 12:15:35;;;;;;;;;;;28.80;28.70;;;;;;5110272;28;19911;-67
2022/03/15 12:18:14;;;;;;;;;;;28.40;28.60;;;;;;5112065;28;19956;-69
2022/03/15 12:20:46;;;;;;;;;;;28.30;29.20;;;;;;5110227;28;19973;-68
2022/03/15 12:23:21;;;;;;;;;;;28.50;29.30;;;;;;5110289;28;19918;-68
2022/03/15 12:25:54;;;;;;;;;;;28.70;28.70;;;;;;5109276;28;19912;-67
2022/03/15 12:28:27;;;;;;;;;;;29.00;28.60;;;;;;5107418;27;19908;-67
2022/03/15 12:30:53;;;;;;;;;;;29.20;28.30;;;;;;5108274;27;20284;-70
2022/03/15 12:33:28;;;;;;;;;;;29.10;28.40;;;;;;5111021;28;19908;-69
2022/03/15 12:36:06;;;;;;;;;;;29.30;29.50;;;;;;5104496;28;19914;-68
2022/03/15 12:38:41;;;;;;;9.18;2.80;;;29.50;29.30;;;;;;5109918;28;20738;-71